createdAt,value
2023-04-18T00:01:30.573Z,52.88
2023-04-18T00:04:19.321Z,50.97
2023-04-18T00:07:05.278Z,48.28
2023-04-18T00:09:50.875Z,48.30
2023-04-18T00:12:37.323Z,50.33
2023-04-18T00:15:22.463Z,46.80
2023-04-18T00:18:08.448Z,45.63
2023-04-18T00:20:54.494Z,48.10
2023-04-18T00:23:43.241Z,49.40
2023-04-18T00:26:28.901Z,45.90
2023-04-18T00:29:15.850Z,39.70
2023-04-18T00:32:01.328Z,39.00
2023-04-18T00:34:49.307Z,36.28
2023-04-18T00:37:35.363Z,35.30
2023-04-18T00:40:24.137Z,36.88
2023-04-18T00:43:09.479Z,32.65
2023-04-18T00:45:57.226Z,35.42
2023-04-18T00:48:44.551Z,40.88
2023-04-18T00:51:30.467Z,31.88
2023-04-18T00:54:18.428Z,41.13
2023-04-18T00:57:04.170Z,34.75
2023-04-18T00:59:50.334Z,30.50
2023-04-18T01:02:36.757Z,33.28
2023-04-18T01:05:23.601Z,30.10
2023-04-18T01:08:09.183Z,27.80
2023-04-18T01:10:54.715Z,29.98
2023-04-18T01:13:39.903Z,28.98
2023-04-18T01:16:27.027Z,27.33
2023-04-18T01:19:13.129Z,30.00
2023-04-18T01:21:59.360Z,29.60
2023-04-18T01:24:48.992Z,27.27
2023-04-18T01:27:36.074Z,23.45
2023-04-18T01:30:21.427Z,26.63
2023-04-18T01:33:07.406Z,24.35
2023-04-18T01:35:52.769Z,28.58
2023-04-18T01:38:38.072Z,27.38
2023-04-18T01:41:23.634Z,24.75
2023-04-18T01:44:12.554Z,26.58
2023-04-18T01:46:58.546Z,22.30
2023-04-18T01:49:48.198Z,23.33
2023-04-18T01:52:33.764Z,24.83
2023-04-18T01:55:20.626Z,22.75
2023-04-18T01:58:06.239Z,19.00
2023-04-18T02:00:57.216Z,17.63
2023-04-18T02:03:42.918Z,24.17
2023-04-18T02:06:28.462Z,19.98
2023-04-18T02:09:14.122Z,19.48
2023-04-18T02:12:02.832Z,21.92
2023-04-18T02:14:53.069Z,18.10
2023-04-18T02:17:38.613Z,21.33
2023-04-18T02:20:26.169Z,16.63
2023-04-18T02:23:12.047Z,15.95
2023-04-18T02:25:57.677Z,19.80
2023-04-18T02:28:43.080Z,13.88
2023-04-18T02:31:28.869Z,17.50
2023-04-18T02:34:14.120Z,13.88
2023-04-18T02:36:59.926Z,16.98
2023-04-18T02:39:45.700Z,15.05
2023-04-18T02:42:31.497Z,16.90
2023-04-18T02:45:20.454Z,15.18
2023-04-18T02:48:05.760Z,15.48
2023-04-18T02:50:52.810Z,14.57
2023-04-18T02:53:38.027Z,18.08
2023-04-18T02:56:24.206Z,12.60
2023-04-18T02:59:45.186Z,18.65
2023-04-18T03:02:53.330Z,20.48
2023-04-18T03:05:52.432Z,14.80
2023-04-18T03:08:38.635Z,15.57
2023-04-18T03:11:25.966Z,13.20
2023-04-18T03:14:12.831Z,13.68
2023-04-18T03:17:04.854Z,20.27
2023-04-18T03:19:55.982Z,20.33
2023-04-18T03:22:44.823Z,17.98
2023-04-18T03:25:35.285Z,15.35
2023-04-18T03:28:21.834Z,14.75
2023-04-18T03:31:07.580Z,18.92
2023-04-18T03:33:55.997Z,18.95
2023-04-18T03:36:41.561Z,18.15
2023-04-18T03:39:27.416Z,15.75
2023-04-18T03:42:13.038Z,16.35
2023-04-18T03:45:00.379Z,16.92
2023-04-18T03:47:46.652Z,16.77
2023-04-18T03:50:32.226Z,16.23
2023-04-18T03:53:18.423Z,16.95
2023-04-18T03:56:07.131Z,15.95
2023-04-18T03:59:16.449Z,16.13
2023-04-18T04:02:06.100Z,15.07
2023-04-18T04:04:51.526Z,18.02
2023-04-18T04:07:37.251Z,20.17
2023-04-18T04:10:23.776Z,19.83
2023-04-18T04:13:10.123Z,15.93
2023-04-18T04:16:00.992Z,18.00
2023-04-18T04:18:46.872Z,23.33
2023-04-18T04:21:35.830Z,14.82
2023-04-18T04:24:22.691Z,17.55
2023-04-18T04:27:12.524Z,19.90
2023-04-18T04:29:58.740Z,16.92
2023-04-18T04:32:45.467Z,17.90
2023-04-18T04:35:32.276Z,19.27
2023-04-18T04:38:20.051Z,17.98
2023-04-18T04:41:07.506Z,18.52
2023-04-18T04:43:53.892Z,16.00
2023-04-18T04:46:44.778Z,19.85
2023-04-18T04:49:36.462Z,21.90
2023-04-18T04:52:22.854Z,22.17
2023-04-18T04:55:08.640Z,20.73
2023-04-18T04:57:57.450Z,22.98
2023-04-18T05:01:07.781Z,25.02
2023-04-18T05:03:54.199Z,18.13
2023-04-18T05:06:40.390Z,18.98
2023-04-18T05:09:26.167Z,17.70
2023-04-18T05:12:11.905Z,19.38
2023-04-18T05:14:57.662Z,19.45
2023-04-18T05:17:43.166Z,20.17
2023-04-18T05:20:28.672Z,19.27
2023-04-18T05:23:14.417Z,16.90
2023-04-18T05:25:59.794Z,21.80
2023-04-18T05:28:45.447Z,21.55
2023-04-18T05:31:31.275Z,17.52
2023-04-18T05:34:16.798Z,19.98
2023-04-18T05:37:04.465Z,20.13
2023-04-18T05:39:49.798Z,20.90
2023-04-18T05:42:35.276Z,21.88
2023-04-18T05:45:20.719Z,23.42
2023-04-18T05:48:06.526Z,19.85
2023-04-18T05:50:52.006Z,22.48
2023-04-18T05:53:37.378Z,19.02
2023-04-18T05:56:22.666Z,19.35
2023-04-18T05:59:10.903Z,17.20
2023-04-18T06:01:56.785Z,17.25
2023-04-18T06:04:43.010Z,21.10
2023-04-18T06:07:28.695Z,21.17
2023-04-18T06:10:14.606Z,18.17
2023-04-18T06:13:00.323Z,17.52
2023-04-18T06:15:45.419Z,21.38
2023-04-18T06:18:31.368Z,18.50
2023-04-18T06:21:16.835Z,20.95
2023-04-18T06:24:09.215Z,23.35
2023-04-18T06:26:57.669Z,19.95
2023-04-18T06:29:45.431Z,23.35
2023-04-18T06:32:31.206Z,20.23
2023-04-18T06:35:16.803Z,18.05
2023-04-18T06:38:05.477Z,21.00
2023-04-18T06:40:51.144Z,18.33
2023-04-18T06:43:36.661Z,16.17
2023-04-18T06:46:22.437Z,16.40
2023-04-18T06:49:07.758Z,16.27
2023-04-18T06:51:53.505Z,17.95
2023-04-18T06:54:38.993Z,19.95
2023-04-18T06:57:24.508Z,16.08
2023-04-18T07:00:13.662Z,17.17
2023-04-18T07:02:59.293Z,14.48
2023-04-18T07:05:45.039Z,16.00
2023-04-18T07:08:30.355Z,17.30
2023-04-18T07:11:18.406Z,17.05
2023-04-18T07:14:03.699Z,18.83
2023-04-18T07:16:56.945Z,15.48
2023-04-18T07:19:42.481Z,16.02
2023-04-18T07:22:28.130Z,18.27
2023-04-18T07:25:13.627Z,17.20
2023-04-18T07:27:59.758Z,16.23
2023-04-18T07:30:45.185Z,17.00
2023-04-18T07:33:34.128Z,14.25
2023-04-18T07:36:22.533Z,13.63
2023-04-18T07:39:08.005Z,18.17
2023-04-18T07:41:53.549Z,16.88
2023-04-18T07:44:39.207Z,15.85
2023-04-18T07:47:29.408Z,14.85
2023-04-18T07:50:15.610Z,16.88
2023-04-18T07:53:01.384Z,15.15
2023-04-18T07:55:47.004Z,13.30
2023-04-18T07:58:34.573Z,14.88
2023-04-18T08:01:25.872Z,15.68
2023-04-18T08:04:12.030Z,12.75
2023-04-18T08:06:57.736Z,15.43
2023-04-18T08:09:42.905Z,15.45
2023-04-18T08:12:28.430Z,21.45
2023-04-18T08:15:14.020Z,13.55
2023-04-18T08:18:01.206Z,12.27
2023-04-18T08:20:47.021Z,12.43
2023-04-18T08:23:32.320Z,14.77
2023-04-18T08:26:21.084Z,12.20
2023-04-18T08:29:06.628Z,14.93
2023-04-18T08:31:51.964Z,10.98
2023-04-18T08:34:38.108Z,13.05
2023-04-18T08:37:23.656Z,13.77
2023-04-18T08:40:09.665Z,10.73
2023-04-18T08:42:57.406Z,13.00
2023-04-18T08:45:44.241Z,12.68
2023-04-18T08:48:29.785Z,15.52
2023-04-18T08:51:18.740Z,13.45
2023-04-18T08:54:06.228Z,12.68
2023-04-18T08:57:05.019Z,17.20
2023-04-18T08:59:51.068Z,12.57
2023-04-18T09:02:43.062Z,13.90
2023-04-18T09:05:29.675Z,12.27
2023-04-18T09:08:27.791Z,12.07
2023-04-18T09:11:29.144Z,10.77
2023-04-18T09:14:25.979Z,9.30
2023-04-18T09:17:31.681Z,10.38
2023-04-18T09:23:24.488Z,10.93
2023-04-18T09:26:10.071Z,10.75
2023-04-18T09:28:55.651Z,9.38
2023-04-18T09:32:01.198Z,9.30
2023-04-18T09:34:47.403Z,8.18
2023-04-18T09:37:32.917Z,11.02
2023-04-18T09:40:19.633Z,8.27
2023-04-18T09:43:21.422Z,9.02
2023-04-18T09:46:08.485Z,9.40
2023-04-18T09:48:54.107Z,10.48
2023-04-18T09:51:41.883Z,7.68
2023-04-18T09:54:31.048Z,7.20
2023-04-18T09:57:17.948Z,9.93
2023-04-18T10:00:16.993Z,12.23
2023-04-18T10:03:09.855Z,11.32
2023-04-18T10:05:57.772Z,10.07
2023-04-18T10:08:49.047Z,8.35
2023-04-18T10:11:34.649Z,9.13
2023-04-18T10:14:20.553Z,9.27
2023-04-18T10:17:06.484Z,9.27
2023-04-18T10:20:06.299Z,9.07
2023-04-18T10:22:55.043Z,7.75
2023-04-18T10:25:41.017Z,5.82
2023-04-18T10:28:27.675Z,5.57
2023-04-18T10:31:12.814Z,7.18
2023-04-18T10:37:03.761Z,6.00
2023-04-18T10:39:58.215Z,6.63
2023-04-18T10:42:46.499Z,10.77
2023-04-18T10:45:36.575Z,5.35
2023-04-18T10:51:23.726Z,10.05
2023-04-18T10:54:13.116Z,8.10
2023-04-18T10:57:03.734Z,5.10
2023-04-18T10:59:54.904Z,5.85
2023-04-18T11:02:47.627Z,4.22
2023-04-18T11:05:34.354Z,4.43
2023-04-18T11:08:23.952Z,4.28
2023-04-18T11:11:11.376Z,4.07
2023-04-18T11:14:06.364Z,3.88
2023-04-18T11:16:52.240Z,6.32
2023-04-18T11:19:37.316Z,5.13
2023-04-18T11:22:22.959Z,7.05
2023-04-18T11:25:08.636Z,12.68
2023-04-18T11:27:59.179Z,15.27
2023-04-18T11:30:46.981Z,9.77
2023-04-18T11:33:32.613Z,9.85
2023-04-18T11:36:18.364Z,8.15
2023-04-18T11:39:06.146Z,10.90
2023-04-18T11:41:51.663Z,7.63
2023-04-18T11:44:43.886Z,7.70
2023-04-18T11:47:33.082Z,7.57
2023-04-18T11:50:20.896Z,7.60
2023-04-18T11:53:06.249Z,6.68
2023-04-18T11:55:56.019Z,7.60
2023-04-18T11:58:42.881Z,8.98
2023-04-18T12:01:28.037Z,8.63
2023-04-18T12:04:14.688Z,9.40
2023-04-18T12:07:00.836Z,9.95
2023-04-18T12:09:48.472Z,8.88
2023-04-18T12:12:34.691Z,5.65
2023-04-18T12:15:26.956Z,6.07
2023-04-18T12:18:15.435Z,5.10
2023-04-18T12:21:05.053Z,6.68
2023-04-18T12:23:50.383Z,5.68
2023-04-18T12:26:45.763Z,5.00
2023-04-18T12:29:30.968Z,7.38
2023-04-18T12:32:19.030Z,5.78
2023-04-18T12:35:05.070Z,6.63
2023-04-18T12:37:52.669Z,4.68
2023-04-18T12:40:40.100Z,9.45
2023-04-18T12:43:25.879Z,5.60
2023-04-18T12:46:11.332Z,8.00
2023-04-18T12:48:57.562Z,7.32
2023-04-18T12:51:43.694Z,7.95
2023-04-18T12:54:29.222Z,8.10
2023-04-18T12:57:15.706Z,8.90
2023-04-18T13:00:01.910Z,10.55
2023-04-18T13:02:47.429Z,7.82
2023-04-18T13:05:34.171Z,9.00
2023-04-18T13:08:19.675Z,9.07
2023-04-18T13:11:08.402Z,9.15
2023-04-18T13:13:56.697Z,9.40
2023-04-18T13:16:43.636Z,9.95
2023-04-18T13:19:29.588Z,10.07
2023-04-18T13:22:15.301Z,11.27
2023-04-18T13:25:00.823Z,12.80
2023-04-18T13:27:48.327Z,10.30
2023-04-18T13:30:35.918Z,9.68
2023-04-18T13:33:21.652Z,9.48
2023-04-18T13:36:07.596Z,9.95
2023-04-18T13:38:53.713Z,12.77
2023-04-18T13:41:39.521Z,10.52
2023-04-18T13:44:31.465Z,12.32
2023-04-18T13:47:17.514Z,11.20
2023-04-18T13:50:04.117Z,10.20
2023-04-18T13:52:52.033Z,12.25
2023-04-18T13:55:37.437Z,11.52
2023-04-18T13:58:23.107Z,11.70
2023-04-18T14:01:08.461Z,11.75
2023-04-18T14:03:54.609Z,10.43
2023-04-18T14:06:42.731Z,12.85
2023-04-18T14:09:31.156Z,9.32
2023-04-18T14:12:16.418Z,8.82
2023-04-18T14:15:03.371Z,11.50
2023-04-18T14:17:49.006Z,9.15
2023-04-18T14:20:34.744Z,9.95
2023-04-18T14:23:23.573Z,11.40
2023-04-18T14:26:12.193Z,10.55
2023-04-18T14:28:58.789Z,10.63
2023-04-18T14:31:44.769Z,9.88
2023-04-18T14:34:33.305Z,11.80
2023-04-18T14:37:19.226Z,11.52
2023-04-18T14:40:05.590Z,11.98
2023-04-18T14:42:50.797Z,11.35
2023-04-18T14:45:37.937Z,10.68
2023-04-18T14:48:23.811Z,11.63
2023-04-18T14:51:09.434Z,13.88
2023-04-18T14:53:55.749Z,16.13
2023-04-18T14:56:41.021Z,12.43
2023-04-18T14:59:28.292Z,11.80
2023-04-18T15:02:13.907Z,11.82
2023-04-18T15:05:01.391Z,14.75
2023-04-18T15:07:47.918Z,15.63
2023-04-18T15:10:37.112Z,12.55
2023-04-18T15:13:22.679Z,14.40
2023-04-18T15:16:08.386Z,12.60
2023-04-18T15:18:53.921Z,15.45
2023-04-18T15:21:39.748Z,14.27
2023-04-18T15:24:25.289Z,13.43
2023-04-18T15:27:11.523Z,13.35
2023-04-18T15:29:56.993Z,11.95
2023-04-18T15:32:42.548Z,10.77
2023-04-18T15:35:28.086Z,18.80
2023-04-18T15:38:13.730Z,12.70
2023-04-18T15:40:59.914Z,9.80
2023-04-18T15:43:46.319Z,10.98
2023-04-18T15:46:31.692Z,11.02
2023-04-18T15:49:17.134Z,11.63
2023-04-18T15:52:03.230Z,9.65
2023-04-18T15:54:48.586Z,9.55
2023-04-18T15:57:34.238Z,9.55
2023-04-18T16:00:20.088Z,9.52
2023-04-18T16:03:10.022Z,10.20
2023-04-18T16:05:55.969Z,10.10
2023-04-18T16:08:44.027Z,15.88
2023-04-18T16:11:35.624Z,12.02
2023-04-18T16:14:21.266Z,10.40
2023-04-18T16:17:06.808Z,10.48
2023-04-18T16:19:52.337Z,13.60
2023-04-18T16:22:38.001Z,12.07
2023-04-18T16:25:23.110Z,10.23
2023-04-18T16:28:08.785Z,9.85
2023-04-18T16:30:55.628Z,10.43
2023-04-18T16:33:41.367Z,12.38
2023-04-18T16:36:27.249Z,9.60
2023-04-18T16:39:12.864Z,10.30
2023-04-18T16:41:58.348Z,11.95
2023-04-18T16:44:45.347Z,10.07
2023-04-18T16:47:31.371Z,10.20
2023-04-18T16:50:16.634Z,10.77
2023-04-18T16:53:02.172Z,11.23
2023-04-18T16:55:49.809Z,9.98
2023-04-18T16:58:36.447Z,12.23
2023-04-18T17:01:21.958Z,13.75
2023-04-18T17:04:07.754Z,9.82
2023-04-18T17:06:53.589Z,10.38
2023-04-18T17:09:38.885Z,11.77
2023-04-18T17:12:26.395Z,12.18
2023-04-18T17:15:12.592Z,11.07
2023-04-18T17:18:00.344Z,14.02
2023-04-18T17:20:46.033Z,10.48
2023-04-18T17:23:32.949Z,12.13
2023-04-18T17:26:18.971Z,10.70
2023-04-18T17:29:04.752Z,11.85
2023-04-18T17:31:50.173Z,11.70
2023-04-18T17:34:36.315Z,11.48
2023-04-18T17:37:22.658Z,12.13
2023-04-18T17:40:10.067Z,12.98
2023-04-18T17:42:55.487Z,9.55
2023-04-18T17:45:41.635Z,11.25
2023-04-18T17:48:26.995Z,10.13
2023-04-18T17:51:12.476Z,11.18
2023-04-18T17:53:57.795Z,11.70
2023-04-18T17:56:45.434Z,11.20
2023-04-18T17:59:30.857Z,10.60
2023-04-18T18:02:16.832Z,10.15
2023-04-18T18:05:02.222Z,10.35
2023-04-18T18:07:48.233Z,10.18
2023-04-18T18:10:35.462Z,10.73
2023-04-18T18:13:21.088Z,11.48
2023-04-18T18:16:09.119Z,13.00
2023-04-18T18:18:54.822Z,13.35
2023-04-18T18:21:41.371Z,12.68
2023-04-18T18:24:27.093Z,12.93
2023-04-18T18:27:12.836Z,12.50
2023-04-18T18:29:58.622Z,14.15
2023-04-18T18:32:43.800Z,12.63
2023-04-18T18:35:29.655Z,14.50
2023-04-18T18:38:14.908Z,12.30
2023-04-18T18:41:04.623Z,14.23
2023-04-18T18:43:51.046Z,14.90
2023-04-18T18:46:36.566Z,14.85
2023-04-18T18:49:22.053Z,13.32
2023-04-18T18:52:07.614Z,13.70
2023-04-18T18:54:53.054Z,13.60
2023-04-18T18:57:38.753Z,13.40
2023-04-18T19:00:27.160Z,14.98
2023-04-18T19:03:12.793Z,11.65
2023-04-18T19:05:58.221Z,13.32
2023-04-18T19:08:43.939Z,12.90
2023-04-18T19:11:29.623Z,11.75
2023-04-18T19:14:15.385Z,15.20
2023-04-18T19:17:00.751Z,14.27
2023-04-18T19:19:46.299Z,14.20
2023-04-18T19:22:31.908Z,13.75
2023-04-18T19:25:17.339Z,17.88
2023-04-18T19:28:04.871Z,17.02
2023-04-18T19:30:53.485Z,13.98
2023-04-18T19:33:38.999Z,13.20
2023-04-18T19:36:24.495Z,13.57
2023-04-18T19:39:09.940Z,13.65
2023-04-18T19:41:55.554Z,12.35
2023-04-18T19:44:40.960Z,14.25
2023-04-18T19:47:27.456Z,16.85
2023-04-18T19:50:13.551Z,17.13
2023-04-18T19:52:58.912Z,22.88
2023-04-18T19:55:45.125Z,16.33
2023-04-18T19:58:34.993Z,14.75
2023-04-18T20:01:21.260Z,15.63
2023-04-18T20:04:08.397Z,14.30
2023-04-18T20:06:58.600Z,17.92
2023-04-18T20:09:43.738Z,15.50
2023-04-18T20:12:29.167Z,16.13
2023-04-18T20:15:14.854Z,16.85
2023-04-18T20:18:00.421Z,16.83
2023-04-18T20:20:45.903Z,16.42
2023-04-18T20:23:31.434Z,17.17
2023-04-18T20:26:16.830Z,15.73
2023-04-18T20:29:03.621Z,12.93
2023-04-18T20:31:49.482Z,15.20
2023-04-18T20:34:34.596Z,16.30
2023-04-18T20:37:20.803Z,15.18
2023-04-18T20:40:10.884Z,12.85
2023-04-18T20:42:59.054Z,18.75
2023-04-18T20:45:46.127Z,15.98
2023-04-18T20:48:31.754Z,15.90
2023-04-18T20:51:16.973Z,11.77
2023-04-18T20:54:03.158Z,13.80
2023-04-18T20:56:48.581Z,12.82
2023-04-18T20:59:33.829Z,14.52
2023-04-18T21:02:22.958Z,12.85
2023-04-18T21:05:08.822Z,14.00
2023-04-18T21:07:56.968Z,13.77
2023-04-18T21:10:42.816Z,12.93
2023-04-18T21:13:28.698Z,12.65
2023-04-18T21:16:14.028Z,14.68
2023-04-18T21:18:59.994Z,12.27
2023-04-18T21:21:48.155Z,14.60
2023-04-18T21:24:36.219Z,11.73
2023-04-18T21:27:21.593Z,12.05
2023-04-18T21:30:07.727Z,12.23
2023-04-18T21:32:53.201Z,11.40
2023-04-18T21:35:38.455Z,13.15
2023-04-18T21:38:25.760Z,11.55
2023-04-18T21:41:14.779Z,14.30
2023-04-18T21:44:00.618Z,10.57
2023-04-18T21:46:46.074Z,11.00
2023-04-18T21:49:31.580Z,12.85
2023-04-18T21:52:17.354Z,10.77
2023-04-18T21:55:03.247Z,10.88
2023-04-18T21:57:49.973Z,11.85
2023-04-18T22:00:35.629Z,11.18
2023-04-18T22:03:21.186Z,12.27
2023-04-18T22:06:06.984Z,9.85
2023-04-18T22:08:52.783Z,12.02
2023-04-18T22:11:38.441Z,10.30
2023-04-18T22:14:24.929Z,11.57
2023-04-18T22:17:10.472Z,10.10
2023-04-18T22:19:56.215Z,10.82
2023-04-18T22:22:41.893Z,11.88
2023-04-18T22:25:27.430Z,12.32
2023-04-18T22:28:12.965Z,10.82
2023-04-18T22:30:58.516Z,10.60
2023-04-18T22:33:43.880Z,11.07
2023-04-18T22:36:31.307Z,14.93
2023-04-18T22:39:16.754Z,10.85
2023-04-18T22:42:05.389Z,10.10
2023-04-18T22:44:50.962Z,11.15
2023-04-18T22:47:36.252Z,8.73
2023-04-18T22:50:21.958Z,11.20
2023-04-18T22:53:07.126Z,11.02
2023-04-18T22:55:52.642Z,9.55
2023-04-18T22:58:38.355Z,13.63
2023-04-18T23:01:23.482Z,12.20
2023-04-18T23:04:11.930Z,11.43
2023-04-18T23:06:58.881Z,12.02
2023-04-18T23:09:44.882Z,11.90
2023-04-18T23:12:30.488Z,11.30
2023-04-18T23:15:16.018Z,14.45
2023-04-18T23:18:01.767Z,10.82
2023-04-18T23:20:50.948Z,12.18
2023-04-18T23:23:36.318Z,10.73
2023-04-18T23:26:23.885Z,13.57
2023-04-18T23:29:09.853Z,12.75
2023-04-18T23:31:55.584Z,15.60
2023-04-18T23:34:41.198Z,12.13
2023-04-18T23:37:26.428Z,11.75
2023-04-18T23:40:12.255Z,12.57
2023-04-18T23:42:57.903Z,12.20
2023-04-18T23:45:43.357Z,12.70
2023-04-18T23:48:28.958Z,14.00
2023-04-18T23:51:16.742Z,14.80
2023-04-18T23:54:02.281Z,11.27
2023-04-18T23:56:47.622Z,13.52
2023-04-18T23:59:33.251Z,12.40
